Teachey, North Carolina
Current Conditions -  °F | °C
As of 12:55 AM on Wednesday 22 Oct 2014 (Local Time) from KDPL Reporting Station
Broken Clouds Broken Clouds  
Wind Chill: 59°   Ceiling: 10000
Heat Index: 59°   Visibility: 10mi
Dew Point: 44°   Wind: 9mph
Humidity: 57%   Direction: 330°NNW
Pressure: 29.91"   Gusts: NA
Location:  34.77°N, 78.01°W
Report Text: KDPL 220455Z AUTO 33008KT 10SM BKN100 15/07 A2991 RMK AO2 T01520068
Loading
Personal Weather Stations






























Interactive Weather Map
Tropical Storm Tracking
New forecast layout! Learn more

10-Day Weather Forecast

Advertisements
Track Severe Weather on mobile